sensor_id;sensor_type;location;lat;lon;timestamp;temperature;humidity
2100;DHT22;1055;48.854;9.302;2023-09-30T09:26:05;17.40;99.90
2100;DHT22;1055;48.854;9.302;2023-09-30T09:28:35;17.40;99.90
2100;DHT22;1055;48.854;9.302;2023-09-30T09:31:02;17.50;99.90
2100;DHT22;1055;48.854;9.302;2023-09-30T09:33:36;17.70;99.90
2100;DHT22;1055;48.854;9.302;2023-09-30T09:36:05;17.90;99.90
2100;DHT22;1055;48.854;9.302;2023-09-30T09:38:47;18.10;99.90
2100;DHT22;1055;48.854;9.302;2023-09-30T09:41:14;18.10;99.90
2100;DHT22;1055;48.854;9.302;2023-09-30T09:43:43;18.10;99.90
2100;DHT22;1055;48.854;9.302;2023-09-30T09:46:09;18.20;99.90
2100;DHT22;1055;48.854;9.302;2023-09-30T09:48:36;18.40;99.90
2100;DHT22;1055;48.854;9.302;2023-09-30T09:51:03;18.60;99.90
2100;DHT22;1055;48.854;9.302;2023-09-30T09:53:30;18.40;99.90
2100;DHT22;1055;48.854;9.302;2023-09-30T09:56:00;18.60;99.90
2100;DHT22;1055;48.854;9.302;2023-09-30T09:58:26;18.70;99.90
2100;DHT22;1055;48.854;9.302;2023-09-30T10:00:52;18.60;99.90
2100;DHT22;1055;48.854;9.302;2023-09-30T10:03:18;18.50;99.90
2100;DHT22;1055;48.854;9.302;2023-09-30T10:05:44;18.70;99.90
2100;DHT22;1055;48.854;9.302;2023-09-30T10:08:16;18.80;99.90
2100;DHT22;1055;48.854;9.302;2023-09-30T10:10:44;18.80;99.90
2100;DHT22;1055;48.854;9.302;2023-09-30T10:19:16;19.00;99.90
2100;DHT22;1055;48.854;9.302;2023-09-30T10:24:43;19.30;99.90
2100;DHT22;1055;48.854;9.302;2023-09-30T10:27:27;19.60;99.90
2100;DHT22;1055;48.854;9.302;2023-09-30T10:30:14;19.70;99.90
2100;DHT22;1055;48.854;9.302;2023-09-30T10:40:46;20.00;99.90
2100;DHT22;1055;48.854;9.302;2023-09-30T10:43:37;19.90;99.90
2100;DHT22;1055;48.854;9.302;2023-09-30T10:46:09;19.60;99.90
2100;DHT22;1055;48.854;9.302;2023-09-30T10:48:50;20.00;99.90
2100;DHT22;1055;48.854;9.302;2023-09-30T10:51:19;20.20;99.90
2100;DHT22;1055;48.854;9.302;2023-09-30T10:56:22;20.30;99.90
2100;DHT22;1055;48.854;9.302;2023-09-30T10:58:50;20.40;99.90
2100;DHT22;1055;48.854;9.302;2023-09-30T11:01:22;20.30;99.90
2100;DHT22;1055;48.854;9.302;2023-09-30T11:03:50;20.50;99.90
2100;DHT22;1055;48.854;9.302;2023-09-30T11:06:20;20.40;99.90
2100;DHT22;1055;48.854;9.302;2023-09-30T11:08:57;20.60;99.90
2100;DHT22;1055;48.854;9.302;2023-09-30T11:14:21;20.60;99.90
2100;DHT22;1055;48.854;9.302;2023-09-30T11:16:49;20.70;99.90
2100;DHT22;1055;48.854;9.302;2023-09-30T11:19:15;20.80;99.90
2100;DHT22;1055;48.854;9.302;2023-09-30T11:21:42;20.60;99.90
2100;DHT22;1055;48.854;9.302;2023-09-30T11:24:09;20.80;99.90
2100;DHT22;1055;48.854;9.302;2023-09-30T11:26:35;20.80;99.90
2100;DHT22;1055;48.854;9.302;2023-09-30T11:29:21;20.70;99.90
2100;DHT22;1055;48.854;9.302;2023-09-30T11:31:48;20.80;99.90
2100;DHT22;1055;48.854;9.302;2023-09-30T11:34:15;20.90;99.90
2100;DHT22;1055;48.854;9.302;2023-09-30T11:36:48;20.90;99.90
2100;DHT22;1055;48.854;9.302;2023-09-30T11:39:27;20.90;99.90
2100;DHT22;1055;48.854;9.302;2023-09-30T11:41:54;20.80;99.90
2100;DHT22;1055;48.854;9.302;2023-09-30T11:44:21;20.90;99.90
2100;DHT22;1055;48.854;9.302;2023-09-30T11:46:58;20.90;99.90
2100;DHT22;1055;48.854;9.302;2023-09-30T11:49:34;20.50;99.90
2100;DHT22;1055;48.854;9.302;2023-09-30T11:52:13;20.80;99.90
2100;DHT22;1055;48.854;9.302;2023-09-30T11:54:42;20.50;99.90
2100;DHT22;1055;48.854;9.302;2023-09-30T11:57:15;20.60;99.90
2100;DHT22;1055;48.854;9.302;2023-09-30T11:59:42;20.80;99.90
2100;DHT22;1055;48.854;9.302;2023-09-30T12:02:09;21.00;99.90
2100;DHT22;1055;48.854;9.302;2023-09-30T12:04:35;20.90;99.90
2100;DHT22;1055;48.854;9.302;2023-09-30T12:07:01;21.10;99.90
2100;DHT22;1055;48.854;9.302;2023-09-30T12:09:27;21.30;99.90
2100;DHT22;1055;48.854;9.302;2023-09-30T12:11:54;21.30;99.90
2100;DHT22;1055;48.854;9.302;2023-09-30T12:14:20;21.30;99.90
2100;DHT22;1055;48.854;9.302;2023-09-30T12:16:47;21.40;99.90
2100;DHT22;1055;48.854;9.302;2023-09-30T12:19:20;21.60;99.90
2100;DHT22;1055;48.854;9.302;2023-09-30T12:21:46;21.60;99.90
2100;DHT22;1055;48.854;9.302;2023-09-30T12:24:17;21.60;99.90
2100;DHT22;1055;48.854;9.302;2023-09-30T12:26:49;21.60;99.90
2100;DHT22;1055;48.854;9.302;2023-09-30T12:29:18;21.30;99.90
2100;DHT22;1055;48.854;9.302;2023-09-30T12:31:48;21.60;99.90
2100;DHT22;1055;48.854;9.302;2023-09-30T12:34:15;22.00;99.90
2100;DHT22;1055;48.854;9.302;2023-09-30T12:36:41;22.30;99.90
2100;DHT22;1055;48.854;9.302;2023-09-30T12:39:08;22.10;99.90
2100;DHT22;1055;48.854;9.302;2023-09-30T12:41:40;21.70;99.90
2100;DHT22;1055;48.854;9.302;2023-09-30T12:44:07;22.20;99.90
2100;DHT22;1055;48.854;9.302;2023-09-30T12:46:33;22.50;99.90
2100;DHT22;1055;48.854;9.302;2023-09-30T12:49:03;22.10;99.90
2100;DHT22;1055;48.854;9.302;2023-09-30T12:51:29;22.20;99.90
2100;DHT22;1055;48.854;9.302;2023-09-30T12:53:55;22.60;99.90
2100;DHT22;1055;48.854;9.302;2023-09-30T12:56:21;22.40;99.90
2100;DHT22;1055;48.854;9.302;2023-09-30T12:58:46;22.60;99.90
2100;DHT22;1055;48.854;9.302;2023-09-30T13:01:12;22.60;99.90
2100;DHT22;1055;48.854;9.302;2023-09-30T13:03:38;22.40;99.90
2100;DHT22;1055;48.854;9.302;2023-09-30T13:06:04;22.40;99.90
2100;DHT22;1055;48.854;9.302;2023-09-30T13:08:30;22.20;99.90
2100;DHT22;1055;48.854;9.302;2023-09-30T13:11:00;22.10;99.90
2100;DHT22;1055;48.854;9.302;2023-09-30T13:13:28;22.30;99.90
2100;DHT22;1055;48.854;9.302;2023-09-30T13:15:56;22.50;99.90
2100;DHT22;1055;48.854;9.302;2023-09-30T13:18:22;22.40;99.90
2100;DHT22;1055;48.854;9.302;2023-09-30T13:20:47;22.70;99.90
2100;DHT22;1055;48.854;9.302;2023-09-30T13:23:13;22.70;99.90
2100;DHT22;1055;48.854;9.302;2023-09-30T13:25:39;22.80;99.90
2100;DHT22;1055;48.854;9.302;2023-09-30T13:28:04;23.00;99.90
2100;DHT22;1055;48.854;9.302;2023-09-30T13:30:30;23.30;99.90
2100;DHT22;1055;48.854;9.302;2023-09-30T13:32:55;23.60;99.90
2100;DHT22;1055;48.854;9.302;2023-09-30T13:35:21;23.30;99.90
2100;DHT22;1055;48.854;9.302;2023-09-30T13:37:47;23.40;98.80
2100;DHT22;1055;48.854;9.302;2023-09-30T13:40:13;23.30;98.60
2100;DHT22;1055;48.854;9.302;2023-09-30T13:42:39;23.50;97.90
2100;DHT22;1055;48.854;9.302;2023-09-30T13:45:05;24.00;98.00
2100;DHT22;1055;48.854;9.302;2023-09-30T13:47:31;24.10;97.90
2100;DHT22;1055;48.854;9.302;2023-09-30T13:49:57;24.30;97.10
2100;DHT22;1055;48.854;9.302;2023-09-30T13:52:23;23.90;95.40
2100;DHT22;1055;48.854;9.302;2023-09-30T13:54:48;23.20;96.90
2100;DHT22;1055;48.854;9.302;2023-09-30T13:57:14;23.80;96.50
2100;DHT22;1055;48.854;9.302;2023-09-30T13:59:40;24.20;96.30
2100;DHT22;1055;48.854;9.302;2023-09-30T14:02:07;23.90;96.80
2100;DHT22;1055;48.854;9.302;2023-09-30T14:04:33;23.30;97.40
2100;DHT22;1055;48.854;9.302;2023-09-30T14:07:01;23.60;97.80
2100;DHT22;1055;48.854;9.302;2023-09-30T14:09:28;23.40;98.10
2100;DHT22;1055;48.854;9.302;2023-09-30T14:11:54;23.00;97.60
2100;DHT22;1055;48.854;9.302;2023-09-30T14:14:19;23.80;97.90
2100;DHT22;1055;48.854;9.302;2023-09-30T14:16:45;23.70;96.60
2100;DHT22;1055;48.854;9.302;2023-09-30T14:19:12;23.60;97.40
2100;DHT22;1055;48.854;9.302;2023-09-30T14:21:39;23.80;97.00
2100;DHT22;1055;48.854;9.302;2023-09-30T14:24:05;23.80;96.90
2100;DHT22;1055;48.854;9.302;2023-09-30T14:26:32;23.70;96.30
2100;DHT22;1055;48.854;9.302;2023-09-30T14:28:57;23.70;97.00
2100;DHT22;1055;48.854;9.302;2023-09-30T14:31:23;23.50;97.30
2100;DHT22;1055;48.854;9.302;2023-09-30T14:33:48;23.30;97.10
2100;DHT22;1055;48.854;9.302;2023-09-30T14:36:14;23.00;97.00
2100;DHT22;1055;48.854;9.302;2023-09-30T14:38:39;23.60;97.50
2100;DHT22;1055;48.854;9.302;2023-09-30T14:41:08;23.50;96.00
2100;DHT22;1055;48.854;9.302;2023-09-30T14:43:35;23.60;97.10
2100;DHT22;1055;48.854;9.302;2023-09-30T14:46:03;23.60;96.50
2100;DHT22;1055;48.854;9.302;2023-09-30T14:48:29;23.70;96.50
2100;DHT22;1055;48.854;9.302;2023-09-30T14:50:55;23.60;95.50
2100;DHT22;1055;48.854;9.302;2023-09-30T14:53:22;23.70;95.10
2100;DHT22;1055;48.854;9.302;2023-09-30T14:55:48;23.20;95.70
2100;DHT22;1055;48.854;9.302;2023-09-30T14:58:14;22.80;96.20
2100;DHT22;1055;48.854;9.302;2023-09-30T15:00:39;23.20;95.80
2100;DHT22;1055;48.854;9.302;2023-09-30T15:03:05;23.30;95.80
2100;DHT22;1055;48.854;9.302;2023-09-30T15:05:34;23.30;95.60
2100;DHT22;1055;48.854;9.302;2023-09-30T15:08:00;23.30;95.50
2100;DHT22;1055;48.854;9.302;2023-09-30T15:10:27;23.40;95.50
2100;DHT22;1055;48.854;9.302;2023-09-30T15:12:54;23.30;95.30
2100;DHT22;1055;48.854;9.302;2023-09-30T15:15:20;22.70;95.80
2100;DHT22;1055;48.854;9.302;2023-09-30T15:17:47;22.90;96.60
2100;DHT22;1055;48.854;9.302;2023-09-30T15:20:12;23.00;95.90
2100;DHT22;1055;48.854;9.302;2023-09-30T15:22:38;22.70;95.60
2100;DHT22;1055;48.854;9.302;2023-09-30T15:25:04;22.60;95.70
2100;DHT22;1055;48.854;9.302;2023-09-30T15:27:30;22.30;96.20
2100;DHT22;1055;48.854;9.302;2023-09-30T15:29:59;22.40;96.20
2100;DHT22;1055;48.854;9.302;2023-09-30T15:32:25;22.50;96.00
2100;DHT22;1055;48.854;9.302;2023-09-30T15:34:51;22.60;95.70
2100;DHT22;1055;48.854;9.302;2023-09-30T15:37:16;22.70;95.70
2100;DHT22;1055;48.854;9.302;2023-09-30T15:39:43;22.50;95.90
2100;DHT22;1055;48.854;9.302;2023-09-30T15:42:11;22.50;95.90
2100;DHT22;1055;48.854;9.302;2023-09-30T15:44:41;22.70;96.40
2100;DHT22;1055;48.854;9.302;2023-09-30T15:47:07;22.80;96.00
2100;DHT22;1055;48.854;9.302;2023-09-30T15:49:34;22.70;95.80
2100;DHT22;1055;48.854;9.302;2023-09-30T15:52:01;22.40;96.60
2100;DHT22;1055;48.854;9.302;2023-09-30T15:54:27;22.70;96.20
2100;DHT22;1055;48.854;9.302;2023-09-30T15:56:53;22.90;95.80
2100;DHT22;1055;48.854;9.302;2023-09-30T15:59:19;23.00;95.80
2100;DHT22;1055;48.854;9.302;2023-09-30T16:01:45;23.20;95.70
2100;DHT22;1055;48.854;9.302;2023-09-30T16:04:11;23.10;96.00
2100;DHT22;1055;48.854;9.302;2023-09-30T16:06:40;23.20;95.80
2100;DHT22;1055;48.854;9.302;2023-09-30T16:09:06;23.40;95.60
2100;DHT22;1055;48.854;9.302;2023-09-30T16:11:31;23.40;95.70
2100;DHT22;1055;48.854;9.302;2023-09-30T16:13:57;23.40;95.90
2100;DHT22;1055;48.854;9.302;2023-09-30T16:16:23;23.60;97.30
2100;DHT22;1055;48.854;9.302;2023-09-30T16:18:48;23.00;97.90
2100;DHT22;1055;48.854;9.302;2023-09-30T16:21:14;23.20;96.90
2100;DHT22;1055;48.854;9.302;2023-09-30T16:23:40;23.30;95.60
2100;DHT22;1055;48.854;9.302;2023-09-30T16:26:06;23.30;95.60
2100;DHT22;1055;48.854;9.302;2023-09-30T16:28:31;22.80;96.80
2100;DHT22;1055;48.854;9.302;2023-09-30T16:31:00;22.80;96.70
2100;DHT22;1055;48.854;9.302;2023-09-30T16:33:26;23.00;96.50
2100;DHT22;1055;48.854;9.302;2023-09-30T16:35:53;22.90;96.80
2100;DHT22;1055;48.854;9.302;2023-09-30T16:38:19;22.70;96.10
2100;DHT22;1055;48.854;9.302;2023-09-30T16:40:48;22.70;96.10
2100;DHT22;1055;48.854;9.302;2023-09-30T16:43:14;22.60;96.30
2100;DHT22;1055;48.854;9.302;2023-09-30T16:45:40;22.60;96.10
2100;DHT22;1055;48.854;9.302;2023-09-30T16:48:06;22.40;96.70
2100;DHT22;1055;48.854;9.302;2023-09-30T16:50:32;22.20;96.70
2100;DHT22;1055;48.854;9.302;2023-09-30T16:52:58;22.10;97.10
2100;DHT22;1055;48.854;9.302;2023-09-30T16:55:23;21.90;97.50
2100;DHT22;1055;48.854;9.302;2023-09-30T16:57:49;21.90;97.70
2100;DHT22;1055;48.854;9.302;2023-09-30T17:00:15;22.00;98.50
2100;DHT22;1055;48.854;9.302;2023-09-30T17:02:41;21.80;98.50
2100;DHT22;1055;48.854;9.302;2023-09-30T17:05:07;21.70;98.60
2100;DHT22;1055;48.854;9.302;2023-09-30T17:07:33;21.70;98.90
2100;DHT22;1055;48.854;9.302;2023-09-30T17:10:00;21.70;99.50
2100;DHT22;1055;48.854;9.302;2023-09-30T17:12:26;21.60;99.90
2100;DHT22;1055;48.854;9.302;2023-09-30T17:14:52;21.50;99.60
2100;DHT22;1055;48.854;9.302;2023-09-30T17:17:17;21.50;99.70
2100;DHT22;1055;48.854;9.302;2023-09-30T17:19:43;21.40;99.60
2100;DHT22;1055;48.854;9.302;2023-09-30T17:22:09;21.30;99.60
2100;DHT22;1055;48.854;9.302;2023-09-30T17:24:37;21.10;99.60
2100;DHT22;1055;48.854;9.302;2023-09-30T17:27:03;21.10;99.70
2100;DHT22;1055;48.854;9.302;2023-09-30T17:29:29;21.00;99.90
2100;DHT22;1055;48.854;9.302;2023-09-30T17:31:54;21.00;99.90
2100;DHT22;1055;48.854;9.302;2023-09-30T17:34:20;20.90;99.90
2100;DHT22;1055;48.854;9.302;2023-09-30T17:36:47;20.70;99.90
2100;DHT22;1055;48.854;9.302;2023-09-30T17:39:14;20.70;99.90
2100;DHT22;1055;48.854;9.302;2023-09-30T17:41:40;20.70;99.90
2100;DHT22;1055;48.854;9.302;2023-09-30T17:44:06;20.70;99.90
2100;DHT22;1055;48.854;9.302;2023-09-30T17:46:32;20.70;99.90
2100;DHT22;1055;48.854;9.302;2023-09-30T17:48:58;20.60;99.90
2100;DHT22;1055;48.854;9.302;2023-09-30T17:51:24;20.60;99.90
2100;DHT22;1055;48.854;9.302;2023-09-30T17:53:51;20.70;99.90
2100;DHT22;1055;48.854;9.302;2023-09-30T17:56:19;20.70;99.90
2100;DHT22;1055;48.854;9.302;2023-09-30T17:58:45;20.60;99.90
2100;DHT22;1055;48.854;9.302;2023-09-30T18:01:13;20.60;99.90
2100;DHT22;1055;48.854;9.302;2023-09-30T18:03:39;20.50;99.90
2100;DHT22;1055;48.854;9.302;2023-09-30T18:06:09;20.40;99.90
2100;DHT22;1055;48.854;9.302;2023-09-30T18:08:37;20.20;99.90
2100;DHT22;1055;48.854;9.302;2023-09-30T18:11:03;20.30;99.90
2100;DHT22;1055;48.854;9.302;2023-09-30T18:13:30;20.30;99.90
2100;DHT22;1055;48.854;9.302;2023-09-30T18:15:58;20.30;99.90
2100;DHT22;1055;48.854;9.302;2023-09-30T18:18:24;20.30;99.90
2100;DHT22;1055;48.854;9.302;2023-09-30T18:20:50;20.30;99.90
2100;DHT22;1055;48.854;9.302;2023-09-30T18:23:16;20.30;99.90
2100;DHT22;1055;48.854;9.302;2023-09-30T18:25:42;20.20;99.90
2100;DHT22;1055;48.854;9.302;2023-09-30T18:28:10;20.10;99.90
2100;DHT22;1055;48.854;9.302;2023-09-30T18:30:44;20.00;99.90
2100;DHT22;1055;48.854;9.302;2023-09-30T18:33:11;20.00;99.90
2100;DHT22;1055;48.854;9.302;2023-09-30T18:35:40;19.90;99.90
2100;DHT22;1055;48.854;9.302;2023-09-30T18:38:07;19.60;99.90
2100;DHT22;1055;48.854;9.302;2023-09-30T18:40:34;19.50;99.90
2100;DHT22;1055;48.854;9.302;2023-09-30T18:43:04;19.40;99.90
2100;DHT22;1055;48.854;9.302;2023-09-30T18:45:37;19.20;99.90
2100;DHT22;1055;48.854;9.302;2023-09-30T18:48:04;19.00;99.90
2100;DHT22;1055;48.854;9.302;2023-09-30T18:50:30;19.10;99.90
2100;DHT22;1055;48.854;9.302;2023-09-30T18:52:58;19.10;99.90
2100;DHT22;1055;48.854;9.302;2023-09-30T18:55:23;19.10;99.90
2100;DHT22;1055;48.854;9.302;2023-09-30T18:57:49;19.10;99.90
2100;DHT22;1055;48.854;9.302;2023-09-30T19:00:15;19.00;99.90
2100;DHT22;1055;48.854;9.302;2023-09-30T19:02:41;18.90;99.90
2100;DHT22;1055;48.854;9.302;2023-09-30T19:05:07;18.90;99.90
2100;DHT22;1055;48.854;9.302;2023-09-30T19:07:34;19.00;99.90
2100;DHT22;1055;48.854;9.302;2023-09-30T19:09:59;19.00;99.90
2100;DHT22;1055;48.854;9.302;2023-09-30T19:12:26;18.90;99.90
2100;DHT22;1055;48.854;9.302;2023-09-30T19:14:53;18.90;99.90
2100;DHT22;1055;48.854;9.302;2023-09-30T19:17:18;18.90;99.90
2100;DHT22;1055;48.854;9.302;2023-09-30T19:19:45;18.80;99.90
2100;DHT22;1055;48.854;9.302;2023-09-30T19:22:11;18.70;99.90
2100;DHT22;1055;48.854;9.302;2023-09-30T19:24:37;18.70;99.90
2100;DHT22;1055;48.854;9.302;2023-09-30T19:27:03;18.60;99.90
2100;DHT22;1055;48.854;9.302;2023-09-30T19:29:29;18.60;99.90
2100;DHT22;1055;48.854;9.302;2023-09-30T19:31:55;18.60;99.90
2100;DHT22;1055;48.854;9.302;2023-09-30T19:34:21;18.60;99.90
2100;DHT22;1055;48.854;9.302;2023-09-30T19:36:47;18.60;99.90
2100;DHT22;1055;48.854;9.302;2023-09-30T19:39:14;18.60;99.90
2100;DHT22;1055;48.854;9.302;2023-09-30T19:41:40;18.50;99.90
2100;DHT22;1055;48.854;9.302;2023-09-30T19:44:07;18.50;99.90
2100;DHT22;1055;48.854;9.302;2023-09-30T19:46:34;18.50;99.90
2100;DHT22;1055;48.854;9.302;2023-09-30T19:49:00;18.40;99.90
2100;DHT22;1055;48.854;9.302;2023-09-30T19:51:25;18.30;99.90
2100;DHT22;1055;48.854;9.302;2023-09-30T19:53:51;18.00;99.90
2100;DHT22;1055;48.854;9.302;2023-09-30T19:56:17;17.80;99.90
2100;DHT22;1055;48.854;9.302;2023-09-30T19:58:43;17.80;99.90
2100;DHT22;1055;48.854;9.302;2023-09-30T20:01:09;17.70;99.90
2100;DHT22;1055;48.854;9.302;2023-09-30T20:03:35;17.50;99.90
2100;DHT22;1055;48.854;9.302;2023-09-30T20:06:13;16.80;99.90
2100;DHT22;1055;48.854;9.302;2023-09-30T20:08:39;16.40;99.90
2100;DHT22;1055;48.854;9.302;2023-09-30T20:11:04;16.20;99.90
2100;DHT22;1055;48.854;9.302;2023-09-30T20:13:30;16.40;99.90
2100;DHT22;1055;48.854;9.302;2023-09-30T20:15:56;16.60;99.90
2100;DHT22;1055;48.854;9.302;2023-09-30T20:18:21;16.70;99.90
2100;DHT22;1055;48.854;9.302;2023-09-30T20:20:47;16.70;99.90
2100;DHT22;1055;48.854;9.302;2023-09-30T20:23:13;16.70;99.90
2100;DHT22;1055;48.854;9.302;2023-09-30T20:25:41;16.40;99.90
2100;DHT22;1055;48.854;9.302;2023-09-30T20:28:06;16.10;99.90
2100;DHT22;1055;48.854;9.302;2023-09-30T20:30:34;15.20;99.90
2100;DHT22;1055;48.854;9.302;2023-09-30T20:33:00;15.00;99.90
2100;DHT22;1055;48.854;9.302;2023-09-30T20:35:25;14.70;99.90
2100;DHT22;1055;48.854;9.302;2023-09-30T20:37:51;14.30;99.90
2100;DHT22;1055;48.854;9.302;2023-09-30T20:40:17;14.20;99.90
2100;DHT22;1055;48.854;9.302;2023-09-30T20:42:43;14.10;99.90
2100;DHT22;1055;48.854;9.302;2023-09-30T20:45:08;14.10;99.90
2100;DHT22;1055;48.854;9.302;2023-09-30T20:47:34;14.10;99.90
2100;DHT22;1055;48.854;9.302;2023-09-30T20:50:00;14.10;99.90
2100;DHT22;1055;48.854;9.302;2023-09-30T20:52:25;14.30;99.90
2100;DHT22;1055;48.854;9.302;2023-09-30T20:54:51;14.20;99.90
2100;DHT22;1055;48.854;9.302;2023-09-30T20:57:17;14.00;99.90
2100;DHT22;1055;48.854;9.302;2023-09-30T20:59:43;13.90;99.90
2100;DHT22;1055;48.854;9.302;2023-09-30T21:02:09;13.80;99.90
2100;DHT22;1055;48.854;9.302;2023-09-30T21:04:34;13.70;99.90
2100;DHT22;1055;48.854;9.302;2023-09-30T21:07:00;13.70;99.90
2100;DHT22;1055;48.854;9.302;2023-09-30T21:09:25;13.70;99.90
2100;DHT22;1055;48.854;9.302;2023-09-30T21:11:51;13.90;99.90
2100;DHT22;1055;48.854;9.302;2023-09-30T21:14:17;14.10;99.90
2100;DHT22;1055;48.854;9.302;2023-09-30T21:16:42;14.20;99.90
2100;DHT22;1055;48.854;9.302;2023-09-30T21:19:08;14.20;99.90
2100;DHT22;1055;48.854;9.302;2023-09-30T21:21:33;14.10;99.90
2100;DHT22;1055;48.854;9.302;2023-09-30T21:24:00;14.10;99.90
2100;DHT22;1055;48.854;9.302;2023-09-30T21:26:26;13.90;99.90
2100;DHT22;1055;48.854;9.302;2023-09-30T21:28:52;13.70;99.90
2100;DHT22;1055;48.854;9.302;2023-09-30T21:31:19;13.60;99.90
2100;DHT22;1055;48.854;9.302;2023-09-30T21:33:45;13.50;99.90
2100;DHT22;1055;48.854;9.302;2023-09-30T21:36:16;13.30;99.90
2100;DHT22;1055;48.854;9.302;2023-09-30T21:38:43;13.30;99.90
2100;DHT22;1055;48.854;9.302;2023-09-30T21:41:14;13.40;99.90
2100;DHT22;1055;48.854;9.302;2023-09-30T21:43:40;13.80;99.90
2100;DHT22;1055;48.854;9.302;2023-09-30T21:46:07;14.00;99.90
2100;DHT22;1055;48.854;9.302;2023-09-30T21:48:33;14.20;99.90
2100;DHT22;1055;48.854;9.302;2023-09-30T21:51:02;14.10;99.90
2100;DHT22;1055;48.854;9.302;2023-09-30T21:53:27;14.20;99.90
2100;DHT22;1055;48.854;9.302;2023-09-30T21:55:56;14.20;99.90
2100;DHT22;1055;48.854;9.302;2023-09-30T21:58:21;14.00;99.90
2100;DHT22;1055;48.854;9.302;2023-09-30T22:00:48;13.70;99.90
2100;DHT22;1055;48.854;9.302;2023-09-30T22:03:14;13.60;99.90
2100;DHT22;1055;48.854;9.302;2023-09-30T22:05:44;13.50;99.90
2100;DHT22;1055;48.854;9.302;2023-09-30T22:08:20;13.40;99.90
2100;DHT22;1055;48.854;9.302;2023-09-30T22:10:50;13.30;99.90
2100;DHT22;1055;48.854;9.302;2023-09-30T22:13:18;13.30;99.90
2100;DHT22;1055;48.854;9.302;2023-09-30T22:15:43;13.20;99.90
2100;DHT22;1055;48.854;9.302;2023-09-30T22:18:09;13.20;99.90
2100;DHT22;1055;48.854;9.302;2023-09-30T22:20:38;13.60;99.90
2100;DHT22;1055;48.854;9.302;2023-09-30T22:23:05;13.70;99.90
2100;DHT22;1055;48.854;9.302;2023-09-30T22:25:34;14.00;99.90
2100;DHT22;1055;48.854;9.302;2023-09-30T22:28:03;14.20;99.90
2100;DHT22;1055;48.854;9.302;2023-09-30T22:30:28;14.30;99.90
2100;DHT22;1055;48.854;9.302;2023-09-30T22:32:56;14.50;99.90
2100;DHT22;1055;48.854;9.302;2023-09-30T22:35:29;14.50;99.90
2100;DHT22;1055;48.854;9.302;2023-09-30T22:37:57;14.50;99.90
2100;DHT22;1055;48.854;9.302;2023-09-30T22:40:23;14.60;99.90
2100;DHT22;1055;48.854;9.302;2023-09-30T22:42:49;14.50;99.90
2100;DHT22;1055;48.854;9.302;2023-09-30T22:45:15;14.60;99.90
2100;DHT22;1055;48.854;9.302;2023-09-30T22:47:49;14.60;99.90
2100;DHT22;1055;48.854;9.302;2023-09-30T22:50:17;14.70;99.90
2100;DHT22;1055;48.854;9.302;2023-09-30T22:52:45;14.70;99.90
2100;DHT22;1055;48.854;9.302;2023-09-30T22:55:12;14.80;99.90
2100;DHT22;1055;48.854;9.302;2023-09-30T22:57:42;14.80;99.90
2100;DHT22;1055;48.854;9.302;2023-09-30T23:00:09;14.70;99.90
2100;DHT22;1055;48.854;9.302;2023-09-30T23:02:37;14.60;99.90
2100;DHT22;1055;48.854;9.302;2023-09-30T23:05:03;14.70;99.90
2100;DHT22;1055;48.854;9.302;2023-09-30T23:07:30;14.70;99.90
2100;DHT22;1055;48.854;9.302;2023-09-30T23:09:56;14.70;99.90
2100;DHT22;1055;48.854;9.302;2023-09-30T23:12:25;14.70;99.90
2100;DHT22;1055;48.854;9.302;2023-09-30T23:14:51;14.60;99.90
2100;DHT22;1055;48.854;9.302;2023-09-30T23:17:18;14.60;99.90
2100;DHT22;1055;48.854;9.302;2023-09-30T23:19:47;14.60;99.90
2100;DHT22;1055;48.854;9.302;2023-09-30T23:22:15;14.50;99.90
2100;DHT22;1055;48.854;9.302;2023-09-30T23:24:41;14.40;99.90
2100;DHT22;1055;48.854;9.302;2023-09-30T23:27:07;14.20;99.90
2100;DHT22;1055;48.854;9.302;2023-09-30T23:29:36;14.00;99.90
2100;DHT22;1055;48.854;9.302;2023-09-30T23:32:03;14.10;99.90
2100;DHT22;1055;48.854;9.302;2023-09-30T23:34:34;14.20;99.90
2100;DHT22;1055;48.854;9.302;2023-09-30T23:37:00;14.20;99.90
2100;DHT22;1055;48.854;9.302;2023-09-30T23:39:26;14.20;99.90
2100;DHT22;1055;48.854;9.302;2023-09-30T23:41:53;14.20;99.90
2100;DHT22;1055;48.854;9.302;2023-09-30T23:44:19;14.20;99.90
2100;DHT22;1055;48.854;9.302;2023-09-30T23:46:46;13.90;99.90
2100;DHT22;1055;48.854;9.302;2023-09-30T23:49:12;14.00;99.90
2100;DHT22;1055;48.854;9.302;2023-09-30T23:51:38;14.00;99.90
2100;DHT22;1055;48.854;9.302;2023-09-30T23:54:05;14.10;99.90
2100;DHT22;1055;48.854;9.302;2023-09-30T23:56:34;14.10;99.90
2100;DHT22;1055;48.854;9.302;2023-09-30T23:59:02;14.00;99.90
